Time;durP1;ratioP1;P1;durP2;ratioP2;P2;SDS_P1;SDS_P2;PMS_P1;PMS_P2;Temp;Humidity;BMP_temperature;BMP_pressure;BME280_temperature;BME280_humidity;BME280_pressure;Samples;Min_cycle;Max_cycle;Signal;HPM_P1;HPM_P2
2023/03/26 00:00:42;;;;;;;16.02;2.97;;;8.40;99.90;;;;;;5038154;28;20037;-86
2023/03/26 00:03:10;;;;;;;16.83;3.00;;;8.40;99.90;;;;;;5033880;28;20049;-85
2023/03/26 00:05:37;;;;;;;7.93;2.60;;;8.40;99.90;;;;;;5036521;28;20036;-85
2023/03/26 00:08:03;;;;;;;11.07;3.00;;;8.50;99.90;;;;;;5054979;28;20044;-85
2023/03/26 00:10:28;;;;;;;12.30;1.90;;;8.30;99.90;;;;;;5037509;28;20056;-85
2023/03/26 00:12:54;;;;;;;16.65;3.28;;;8.20;99.90;;;;;;5053542;28;20082;-86
2023/03/26 00:15:20;;;;;;;15.27;2.75;;;8.30;99.90;;;;;;5024436;28;20037;-86
2023/03/26 00:17:46;;;;;;;11.77;2.88;;;8.40;99.90;;;;;;5038500;28;20395;-85
2023/03/26 00:20:13;;;;;;;11.32;2.55;;;8.90;99.90;;;;;;5020700;28;20466;-86
2023/03/26 00:22:40;;;;;;;15.15;2.25;;;8.20;99.90;;;;;;5052290;28;20108;-85
2023/03/26 00:25:12;;;;;;;13.70;2.90;;;8.20;99.90;;;;;;5050957;28;20033;-85
2023/03/26 00:27:38;;;;;;;15.10;2.90;;;8.20;99.90;;;;;;5051360;28;20033;-85
2023/03/26 00:30:04;;;;;;;13.13;3.05;;;8.90;99.90;;;;;;5050509;28;20310;-85
2023/03/26 00:32:31;;;;;;;13.50;3.10;;;8.20;99.90;;;;;;5034669;28;20044;-85
2023/03/26 00:34:57;;;;;;;16.65;3.42;;;8.20;99.90;;;;;;5033231;28;20071;-85
2023/03/26 00:37:26;;;;;;;17.70;2.97;;;8.20;99.90;;;;;;5046264;28;20041;-85
2023/03/26 00:39:53;;;;;;;16.35;2.70;;;8.20;99.90;;;;;;5043973;28;20044;-85
2023/03/26 00:42:19;;;;;;;20.70;2.92;;;8.20;99.90;;;;;;5056005;28;20040;-85
2023/03/26 00:44:45;;;;;;;16.98;2.58;;;8.10;99.90;;;;;;5057520;28;20063;-85
2023/03/26 00:47:12;;;;;;;12.02;2.03;;;8.10;99.90;;;;;;5049385;28;20035;-85
2023/03/26 00:49:38;;;;;;;13.50;2.65;;;8.30;99.90;;;;;;5058896;28;20044;-85
2023/03/26 00:52:07;;;;;;;17.00;2.63;;;8.10;99.90;;;;;;5034324;28;20056;-85
2023/03/26 00:54:34;;;;;;;13.60;3.03;;;8.10;99.90;;;;;;5052972;28;20490;-85
2023/03/26 00:56:59;;;;;;;10.68;2.58;;;8.10;99.90;;;;;;5055095;28;20054;-85
2023/03/26 00:59:29;;;;;;;14.77;2.80;;;8.10;99.90;;;;;;5054984;28;20486;-84
2023/03/26 01:01:57;;;;;;;13.88;2.72;;;8.20;99.90;;;;;;5037414;28;20047;-85
2023/03/26 01:04:29;;;;;;;13.10;2.25;;;8.10;99.90;;;;;;5056773;28;20041;-85
2023/03/26 01:06:57;;;;;;;11.23;1.95;;;8.10;99.90;;;;;;5041246;28;20040;-85
2023/03/26 01:09:31;;;;;;;10.20;3.13;;;8.10;99.90;;;;;;5043543;28;20153;-85
2023/03/26 01:12:01;;;;;;;;;;;8.10;99.90;;;;;;5050811;28;20048;-85
2023/03/26 01:14:32;;;;;;;12.15;2.70;;;7.70;99.90;;;;;;5053916;28;19920;-85
2023/03/26 01:17:04;;;;;;;14.88;2.55;;;8.10;99.90;;;;;;5046305;28;20043;-84
2023/03/26 01:19:39;;;;;;;12.57;2.38;;;8.00;99.90;;;;;;5029555;28;20075;-85
2023/03/26 01:22:09;;;;;;;10.10;2.05;;;8.10;99.90;;;;;;5038087;28;20040;-85
2023/03/26 01:24:36;;;;;;;13.20;2.90;;;8.00;99.90;;;;;;5042220;28;20043;-84
2023/03/26 01:27:19;;;;;;;17.30;3.65;;;8.00;99.90;;;;;;5055693;28;20037;-85
2023/03/26 01:29:52;;;;;;;10.25;2.35;;;8.00;99.90;;;;;;5049701;28;20129;-85
2023/03/26 01:32:51;;;;;;;12.90;3.13;;;7.90;99.90;;;;;;5050630;28;20036;-85
2023/03/26 01:35:29;;;;;;;14.10;2.05;;;7.90;99.90;;;;;;4959001;28;20055;-85
2023/03/26 01:38:09;;;;;;;13.38;2.47;;;7.90;99.90;;;;;;4957906;28;20071;-86
2023/03/26 01:40:48;;;;;;;10.43;2.25;;;7.90;99.90;;;;;;4966231;28;20559;-85
2023/03/26 01:43:39;;;;;;;14.85;2.28;;;7.90;99.90;;;;;;4989707;28;20595;-85
2023/03/26 01:46:08;;;;;;;12.77;2.08;;;7.90;99.90;;;;;;4970122;28;20058;-85
2023/03/26 01:48:37;;;;;;;10.68;2.00;;;7.90;99.90;;;;;;4975354;28;20170;-85
2023/03/26 01:51:04;;;;;;;11.90;2.40;;;7.90;99.90;;;;;;4977842;28;20190;-85
2023/03/26 01:53:32;;;;;;;14.85;2.45;;;7.90;99.90;;;;;;4961385;28;20047;-86
2023/03/26 01:56:11;;;;;;;12.30;2.25;;;7.90;99.90;;;;;;4984417;28;20046;-85
2023/03/26 01:58:40;;;;;;;9.10;2.53;;;7.90;99.90;;;;;;4957907;28;20054;-85
2023/03/26 02:01:19;;;;;;;14.90;2.78;;;7.90;99.90;;;;;;4957913;28;20497;-85
2023/03/26 02:03:52;;;;;;;12.00;2.20;;;7.90;99.90;;;;;;4969363;28;20617;-86
2023/03/26 02:06:29;;;;;;;14.50;2.70;;;7.90;99.90;;;;;;4957438;28;20055;-85
2023/03/26 02:09:06;;;;;;;15.15;2.70;;;7.90;99.90;;;;;;4994603;28;20475;-85
2023/03/26 02:11:34;;;;;;;13.50;2.42;;;7.90;99.90;;;;;;5011049;28;20048;-85
2023/03/26 02:14:00;;;;;;;16.10;2.50;;;7.80;99.90;;;;;;5054183;28;20041;-85
2023/03/26 02:16:25;;;;;;;15.25;2.50;;;7.80;99.90;;;;;;5051979;28;20029;-85
2023/03/26 02:18:54;;;;;;;16.67;2.45;;;7.80;99.90;;;;;;5033258;28;20475;-85
2023/03/26 02:21:24;;;;;;;11.27;2.92;;;7.70;99.90;;;;;;5031010;28;20991;-85
2023/03/26 02:24:04;;;;;;;15.75;2.85;;;7.80;99.90;;;;;;5053544;28;20037;-85
2023/03/26 02:26:32;;;;;;;12.40;2.75;;;8.10;99.90;;;;;;5045585;28;20106;-85
2023/03/26 02:28:58;;;;;;;23.60;2.58;;;7.70;99.90;;;;;;5016831;28;20044;-84
2023/03/26 02:31:25;;;;;;;14.40;2.25;;;7.70;99.90;;;;;;5022578;28;20187;-86
2023/03/26 02:33:51;;;;;;;13.00;3.25;;;7.60;99.90;;;;;;5048819;28;20044;-85
2023/03/26 02:36:23;;;;;;;15.75;2.58;;;7.60;99.90;;;;;;5049139;28;20041;-84
2023/03/26 02:38:51;;;;;;;14.85;2.60;;;7.60;99.90;;;;;;5039397;28;20045;-85
2023/03/26 02:41:20;;;;;;;15.70;2.55;;;7.60;99.90;;;;;;5031684;28;20048;-85
2023/03/26 02:43:45;;;;;;;11.88;2.33;;;7.60;99.90;;;;;;5031078;28;20052;-85
2023/03/26 02:46:11;;;;;;;17.63;2.75;;;7.50;99.90;;;;;;5036537;28;20107;-86
2023/03/26 02:48:37;;;;;;;20.58;2.58;;;7.50;99.90;;;;;;5050496;28;20087;-86
2023/03/26 02:51:05;;;;;;;13.68;2.67;;;7.50;99.90;;;;;;5034675;28;20081;-86
2023/03/26 02:53:31;;;;;;;11.00;2.50;;;7.50;99.90;;;;;;5054885;28;20128;-83
2023/03/26 02:55:59;;;;;;;10.32;2.08;;;7.50;99.90;;;;;;5035233;28;20048;-83
2023/03/26 02:58:28;;;;;;;15.93;2.40;;;7.50;99.90;;;;;;5044669;28;20128;-83
2023/03/26 03:00:55;;;;;;;16.48;3.10;;;7.50;99.90;;;;;;5057635;28;20403;-83
2023/03/26 03:03:25;;;;;;;12.27;2.22;;;7.50;99.90;;;;;;5034233;28;20052;-83
2023/03/26 03:05:55;;;;;;;12.10;2.53;;;7.50;99.90;;;;;;5036136;28;20049;-83
2023/03/26 03:08:25;;;;;;;12.70;2.47;;;7.50;99.90;;;;;;5054342;28;20049;-83
2023/03/26 03:11:00;;;;;;;11.50;2.10;;;7.60;99.90;;;;;;5049170;28;20040;-83
2023/03/26 03:13:27;;;;;;;13.50;2.10;;;7.60;99.90;;;;;;5060683;28;20043;-83
2023/03/26 03:15:53;;;;;;;13.05;2.70;;;7.60;99.90;;;;;;5047233;28;20455;-82
2023/03/26 03:18:19;;;;;;;11.65;2.08;;;7.70;99.90;;;;;;5051842;28;20115;-83
2023/03/26 03:20:45;;;;;;;19.80;2.58;;;7.60;99.90;;;;;;5034416;28;20053;-83
2023/03/26 03:23:13;;;;;;;15.70;2.78;;;7.70;99.90;;;;;;5052126;28;20033;-83
2023/03/26 03:25:42;;;;;;;14.50;2.13;;;8.20;99.90;;;;;;5040451;28;20044;-83
2023/03/26 03:28:08;;;;;;;19.48;2.97;;;7.60;99.90;;;;;;5017280;28;20037;-83
2023/03/26 03:30:34;;;;;;;11.15;2.60;;;7.70;99.90;;;;;;5047911;28;20545;-83
2023/03/26 03:33:01;;;;;;;7.75;1.65;;;7.70;99.90;;;;;;5043600;28;20071;-83
2023/03/26 03:35:32;;;;;;;13.10;2.20;;;7.80;99.90;;;;;;5036094;28;20051;-82
2023/03/26 03:37:58;;;;;;;13.70;2.60;;;7.70;99.90;;;;;;5062447;28;20045;-83
2023/03/26 03:40:24;;;;;;;15.68;2.30;;;7.70;99.90;;;;;;5042565;28;20056;-84
2023/03/26 03:42:51;;;;;;;13.88;2.40;;;7.70;99.90;;;;;;5040881;28;20175;-84
2023/03/26 03:45:20;;;;;;;13.00;2.67;;;7.70;99.90;;;;;;5064966;28;20048;-84
2023/03/26 03:47:46;;;;;;;13.27;2.70;;;7.70;99.90;;;;;;5047999;28;20087;-84
2023/03/26 03:50:12;;;;;;;14.77;2.17;;;7.70;99.90;;;;;;5033916;28;20040;-84
2023/03/26 03:52:37;;;;;;;12.77;2.42;;;7.70;99.90;;;;;;5051838;28;20068;-85
2023/03/26 03:55:03;;;;;;;17.67;2.22;;;7.70;99.90;;;;;;5059479;28;20037;-84
2023/03/26 03:57:30;;;;;;;13.82;2.40;;;7.70;99.90;;;;;;5051511;28;20041;-84
2023/03/26 03:59:57;;;;;;;18.92;2.97;;;7.70;99.90;;;;;;5034100;28;20041;-84
2023/03/26 04:02:29;;;;;;;15.82;2.70;;;7.60;99.90;;;;;;5032832;28;20052;-84
2023/03/26 04:04:57;;;;;;;17.15;3.15;;;7.60;99.90;;;;;;5044722;28;20094;-84
2023/03/26 04:07:30;;;;;;;13.65;2.13;;;7.60;99.90;;;;;;5051796;28;20124;-84
2023/03/26 04:09:56;;;;;;;13.00;2.45;;;7.60;99.90;;;;;;5026213;28;20479;-84
2023/03/26 04:12:21;;;;;;;16.98;2.10;;;7.60;99.90;;;;;;5054405;28;20025;-85
2023/03/26 04:14:47;;;;;;;18.15;2.97;;;7.50;99.90;;;;;;5035698;28;20056;-84
2023/03/26 04:17:14;;;;;;;16.77;2.85;;;7.60;99.90;;;;;;5058662;28;20043;-84
2023/03/26 04:19:40;;;;;;;19.17;2.95;;;7.50;99.90;;;;;;5062024;28;20050;-84
2023/03/26 04:22:06;;;;;;;15.27;3.00;;;7.50;99.90;;;;;;5057124;28;20194;-84
2023/03/26 04:24:37;;;;;;;13.73;2.78;;;7.50;99.90;;;;;;5043387;28;20107;-84
2023/03/26 04:27:05;;;;;;;14.30;2.47;;;7.50;99.90;;;;;;5057783;28;20047;-84
2023/03/26 04:29:41;;;;;;;19.70;2.67;;;7.50;99.90;;;;;;5035640;28;20036;-84
2023/03/26 04:32:14;;;;;;;17.13;3.25;;;8.10;99.90;;;;;;5035989;28;20072;-84
2023/03/26 04:34:44;;;;;;;12.13;2.28;;;7.50;99.90;;;;;;5036962;28;20048;-84
2023/03/26 04:37:34;;;;;;;15.02;2.47;;;8.30;99.90;;;;;;5039795;28;20036;-84
2023/03/26 04:40:08;;;;;;;11.38;2.40;;;7.40;99.90;;;;;;5018386;28;20446;-84
2023/03/26 04:42:44;;;;;;;15.48;2.40;;;7.40;99.90;;;;;;5052141;28;20072;-84
2023/03/26 04:45:12;;;;;;;17.92;2.50;;;7.60;99.90;;;;;;5040795;28;20111;-83
2023/03/26 04:47:40;;;;;;;15.50;2.38;;;7.30;99.90;;;;;;5054198;28;20052;-85
2023/03/26 04:50:09;;;;;;;18.05;2.50;;;7.30;99.90;;;;;;5043181;28;20529;-86
2023/03/26 04:52:36;;;;;;;14.95;2.78;;;7.30;99.90;;;;;;5041556;28;20477;-84
2023/03/26 04:55:03;;;;;;;13.15;2.17;;;7.20;99.90;;;;;;5033892;28;20123;-83
2023/03/26 04:57:42;;;;;;;13.80;2.38;;;7.20;99.90;;;;;;5062490;28;20482;-83
2023/03/26 05:00:14;;;;;;;17.92;2.85;;;7.20;99.90;;;;;;5040805;28;20045;-84
2023/03/26 05:02:41;;;;;;;19.27;2.65;;;7.10;99.90;;;;;;5050393;28;20044;-84
2023/03/26 05:05:09;;;;;;;11.82;2.33;;;7.10;99.90;;;;;;5032048;28;20056;-84
2023/03/26 05:07:41;;;;;;;19.23;3.22;;;7.00;99.90;;;;;;5041021;28;20048;-84
2023/03/26 05:10:07;;;;;;;22.25;2.63;;;7.00;99.90;;;;;;5037571;28;20048;-84
2023/03/26 05:12:33;;;;;;;25.02;3.65;;;7.00;99.90;;;;;;5049303;28;20045;-83
2023/03/26 05:14:59;;;;;;;13.15;2.50;;;6.90;99.90;;;;;;5042235;28;20032;-84
2023/03/26 05:17:25;;;;;;;10.07;1.95;;;7.10;99.90;;;;;;5054187;28;20059;-84
2023/03/26 05:19:51;;;;;;;15.80;2.30;;;6.80;99.90;;;;;;5052262;28;20522;-84
2023/03/26 05:22:20;;;;;;;17.02;2.47;;;7.10;99.90;;;;;;5040061;28;20048;-84
2023/03/26 05:24:45;;;;;;;17.25;2.35;;;6.80;99.90;;;;;;5054227;28;20115;-84
2023/03/26 05:27:21;;;;;;;11.82;2.60;;;7.10;99.90;;;;;;5053165;28;20120;-83
2023/03/26 05:29:47;;;;;;;12.18;2.08;;;6.80;99.90;;;;;;5031976;28;20040;-84
2023/03/26 05:32:13;;;;;;;12.57;2.28;;;6.80;99.90;;;;;;5054339;28;20124;-83
2023/03/26 05:34:39;;;;;;;14.27;2.13;;;6.80;99.90;;;;;;5038147;28;20041;-83
2023/03/26 05:37:05;;;;;;;17.40;2.33;;;6.80;99.90;;;;;;5055456;28;20547;-84
2023/03/26 05:39:32;;;;;;;12.82;2.30;;;6.80;99.90;;;;;;5060798;28;20095;-83
2023/03/26 05:41:58;;;;;;;13.15;2.38;;;6.80;99.90;;;;;;5027760;28;20055;-83
2023/03/26 05:44:24;;;;;;;15.48;2.75;;;6.80;99.90;;;;;;5035050;28;20032;-83
2023/03/26 05:46:50;;;;;;;16.95;2.47;;;6.80;99.90;;;;;;5039656;28;20515;-84
2023/03/26 05:49:15;;;;;;;12.65;1.92;;;7.30;99.90;;;;;;5031685;28;20066;-84
2023/03/26 05:51:44;;;;;;;14.25;2.28;;;6.80;99.90;;;;;;5044979;28;20060;-85
2023/03/26 05:54:09;;;;;;;22.05;3.58;;;6.80;99.90;;;;;;5041384;28;20045;-85
2023/03/26 05:56:35;;;;;;;14.73;2.90;;;6.90;99.90;;;;;;5060010;28;20120;-85
2023/03/26 05:59:01;;;;;;;12.95;2.33;;;6.80;99.90;;;;;;5034627;28;20041;-85
2023/03/26 06:01:28;;;;;;;12.35;2.95;;;6.80;99.90;;;;;;5048304;28;20096;-84
2023/03/26 06:03:54;;;;;;;18.00;3.28;;;6.90;99.90;;;;;;5052591;28;20541;-85
2023/03/26 06:06:20;;;;;;;11.50;1.90;;;6.90;99.90;;;;;;5034218;28;20045;-84
2023/03/26 06:08:49;;;;;;;14.85;2.97;;;6.90;99.90;;;;;;5038075;28;20071;-82
2023/03/26 06:11:16;;;;;;;13.40;2.47;;;6.90;99.90;;;;;;5039922;28;20047;-84
2023/03/26 06:13:42;;;;;;;17.05;2.80;;;7.60;99.90;;;;;;5033329;28;20059;-85
2023/03/26 06:16:09;;;;;;;11.95;2.90;;;7.00;99.90;;;;;;5060239;28;20033;-88
2023/03/26 06:18:35;;;;;;;15.07;2.78;;;7.00;99.90;;;;;;5036468;28;20045;-83
2023/03/26 06:21:02;;;;;;;13.20;2.30;;;7.10;99.90;;;;;;5034335;28;20117;-83
2023/03/26 06:23:29;;;;;;;12.48;2.58;;;7.10;99.90;;;;;;5061380;28;20049;-84
2023/03/26 06:25:55;;;;;;;12.80;2.85;;;7.10;99.90;;;;;;5040626;28;20041;-84
2023/03/26 06:28:20;;;;;;;13.95;3.55;;;7.10;99.90;;;;;;5025287;28;20120;-86
2023/03/26 06:30:46;;;;;;;13.90;2.00;;;7.20;99.90;;;;;;5065483;28;20044;-86
2023/03/26 06:33:12;;;;;;;12.65;2.38;;;7.20;99.90;;;;;;5047924;28;20060;-85
2023/03/26 06:35:38;;;;;;;12.68;2.38;;;7.20;99.90;;;;;;5040889;28;20036;-85
2023/03/26 06:38:09;;;;;;;12.30;2.33;;;7.20;99.90;;;;;;5042530;28;20052;-85
2023/03/26 06:40:35;;;;;;;12.43;1.85;;;7.30;99.90;;;;;;5073865;28;20064;-86
2023/03/26 06:43:04;;;;;;;14.82;2.25;;;7.30;99.90;;;;;;5048931;28;20419;-86
2023/03/26 06:45:32;;;;;;;8.52;1.80;;;8.00;99.90;;;;;;5061380;28;20040;-86
2023/03/26 06:48:00;;;;;;;14.90;2.03;;;7.30;99.90;;;;;;5060485;28;21096;-86
2023/03/26 06:50:27;;;;;;;11.27;1.85;;;7.40;99.90;;;;;;5046185;28;20506;-87
2023/03/26 06:52:54;;;;;;;13.00;2.10;;;7.40;99.90;;;;;;5057380;28;20079;-86
2023/03/26 06:55:21;;;;;;;17.50;2.97;;;7.50;99.90;;;;;;5040823;28;20479;-86
2023/03/26 06:57:51;;;;;;;16.75;2.28;;;7.50;99.90;;;;;;5049659;28;20041;-86
2023/03/26 07:00:17;;;;;;;12.07;2.15;;;8.00;99.90;;;;;;5046139;28;20119;-86
2023/03/26 07:02:48;;;;;;;12.32;2.70;;;7.50;99.90;;;;;;5045977;28;20083;-91
2023/03/26 07:05:14;;;;;;;15.55;2.05;;;7.60;99.90;;;;;;5051533;28;20515;-86
2023/03/26 07:07:43;;;;;;;15.70;2.30;;;7.60;99.90;;;;;;5045789;28;20059;-85
2023/03/26 07:10:09;;;;;;;17.00;2.35;;;7.60;99.90;;;;;;5061001;28;20041;-86
2023/03/26 07:12:35;;;;;;;12.60;2.13;;;7.60;99.90;;;;;;5042832;28;20119;-87
2023/03/26 07:15:08;;;;;;;12.05;2.42;;;7.60;99.90;;;;;;5047807;28;20147;-85
2023/03/26 07:17:33;;;;;;;9.98;2.08;;;7.60;99.90;;;;;;5039946;28;20056;-84
2023/03/26 07:20:00;;;;;;;12.15;2.35;;;7.60;99.90;;;;;;5041748;28;20036;-85
2023/03/26 07:22:27;;;;;;;14.18;2.45;;;7.60;99.90;;;;;;5047979;28;20057;-85
2023/03/26 07:24:56;;;;;;;11.50;1.90;;;7.60;99.90;;;;;;5074571;28;20079;-83
2023/03/26 07:27:52;;;;;;;15.73;2.72;;;7.60;99.90;;;;;;5054597;28;20029;-86
2023/03/26 07:30:33;;;;;;;12.15;1.80;;;7.70;99.90;;;;;;5031135;28;20462;-86
2023/03/26 07:33:07;;;;;;;13.02;2.40;;;7.70;99.90;;;;;;5054584;28;20128;-85
2023/03/26 07:35:49;;;;;;;14.65;1.73;;;8.10;99.90;;;;;;5046088;28;20071;-87
2023/03/26 07:38:52;;;;;;;12.73;2.03;;;7.70;99.90;;;;;;5026345;28;21219;-86
2023/03/26 07:41:26;;;;;;;8.95;1.63;;;7.80;99.90;;;;;;5037262;28;20045;-86
2023/03/26 07:44:01;;;;;;;;;;;7.80;99.90;;;;;;5040408;28;20503;-84
2023/03/26 07:46:30;;;;;;;8.68;1.70;;;7.90;99.90;;;;;;5032090;28;19992;-86
2023/03/26 07:48:59;;;;;;;15.55;2.30;;;7.90;99.90;;;;;;5039011;28;20037;-87
2023/03/26 07:51:25;;;;;;;16.15;2.55;;;7.90;99.90;;;;;;5030239;28;20486;-86
2023/03/26 07:53:51;;;;;;;12.40;1.70;;;7.90;99.90;;;;;;5061957;28;20162;-88
2023/03/26 07:56:29;;;;;;;9.43;1.45;;;8.00;99.90;;;;;;5039579;28;20613;-87
2023/03/26 07:59:05;;;;;;;20.20;2.78;;;8.00;99.90;;;;;;5064696;28;20092;-88
2023/03/26 08:01:40;;;;;;;17.48;2.28;;;8.10;99.90;;;;;;5043651;28;20051;-88
2023/03/26 08:04:28;;;;;;;13.10;1.73;;;8.10;99.90;;;;;;5071470;28;20083;-87
2023/03/26 08:07:15;;;;;;;15.85;2.25;;;8.20;99.90;;;;;;5063421;28;20056;-87
2023/03/26 08:09:46;;;;;;;9.65;1.45;;;8.20;99.90;;;;;;5046115;28;20044;-87
2023/03/26 08:12:33;;;;;;;13.65;1.92;;;8.20;99.90;;;;;;5060385;28;20103;-85
2023/03/26 08:15:32;;;;;;;17.60;2.03;;;8.20;99.90;;;;;;5059687;28;20107;-85
2023/03/26 08:18:26;;;;;;;8.55;1.42;;;8.30;99.90;;;;;;5047159;28;20045;-85
2023/03/26 08:21:15;;;;;;;13.13;2.20;;;8.30;99.90;;;;;;5030323;28;20605;-85
2023/03/26 08:24:09;;;;;;;12.32;1.95;;;8.30;99.90;;;;;;5024920;28;20410;-84
2023/03/26 08:27:12;;;;;;;9.05;1.63;;;8.40;99.90;;;;;;5044753;28;20071;-84
2023/03/26 08:29:53;;;;;;;10.65;1.77;;;8.40;99.90;;;;;;5061818;28;20052;-85
2023/03/26 08:32:20;;;;;;;16.13;2.10;;;9.00;99.90;;;;;;5052940;28;20493;-85
2023/03/26 08:34:56;;;;;;;15.80;1.83;;;8.40;99.90;;;;;;5036504;28;20133;-84
2023/03/26 08:37:22;;;;;;;9.10;1.20;;;8.40;99.90;;;;;;5045770;28;20485;-88
2023/03/26 08:39:50;;;;;;;13.18;1.98;;;8.50;99.90;;;;;;5040193;28;20499;-86
2023/03/26 08:42:34;;;;;;;11.77;1.75;;;8.50;99.90;;;;;;5042631;28;20037;-86
2023/03/26 08:45:47;;;;;;;16.47;2.47;;;8.60;99.90;;;;;;5048360;28;20040;-87
2023/03/26 08:48:39;;;;;;;11.45;1.88;;;8.60;99.90;;;;;;5039116;28;20048;-85
2023/03/26 08:51:23;;;;;;;15.20;2.25;;;8.70;99.90;;;;;;5039094;28;20086;-85
2023/03/26 08:54:31;;;;;;;7.07;1.92;;;8.80;99.90;;;;;;5047073;28;20164;-85
2023/03/26 08:57:23;;;;;;;11.55;2.17;;;8.80;99.90;;;;;;5057367;23;20161;-89
2023/03/26 09:00:15;;;;;;;12.10;1.90;;;8.90;99.90;;;;;;5054157;28;20056;-84
2023/03/26 09:02:47;;;;;;;14.10;1.92;;;8.90;99.90;;;;;;5050749;28;20060;-84
2023/03/26 09:05:22;;;;;;;13.35;1.77;;;8.90;99.90;;;;;;5047364;28;20048;-84
2023/03/26 09:08:25;;;;;;;9.85;1.60;;;8.90;99.90;;;;;;5052734;28;20040;-84
2023/03/26 09:11:06;;;;;;;13.00;2.10;;;9.00;99.90;;;;;;5051376;28;20044;-85
2023/03/26 09:14:11;;;;;;;9.15;2.22;;;9.00;99.90;;;;;;5033896;28;20839;-85
2023/03/26 09:17:14;;;;;;;16.35;1.83;;;9.10;99.90;;;;;;5057009;28;20086;-84
2023/03/26 09:19:57;;;;;;;10.85;2.00;;;9.10;99.90;;;;;;5051409;28;20113;-87
2023/03/26 09:22:41;;;;;;;13.57;1.90;;;9.10;99.90;;;;;;5056191;28;20072;-86
2023/03/26 09:25:38;;;;;;;6.55;1.35;;;9.20;99.90;;;;;;5054536;28;20036;-86
2023/03/26 09:28:42;;;;;;;13.02;1.75;;;9.20;99.90;;;;;;5048344;28;20047;-86
2023/03/26 09:31:13;;;;;;;8.40;1.75;;;9.30;99.90;;;;;;5053319;28;20052;-86
2023/03/26 09:34:00;;;;;;;16.52;2.38;;;9.30;99.90;;;;;;5033463;28;20037;-87
2023/03/26 09:36:56;;;;;;;13.35;1.77;;;9.30;99.90;;;;;;5058017;28;20056;-88
2023/03/26 09:39:54;;;;;;;10.20;1.75;;;9.40;99.90;;;;;;5064331;28;20113;-87
2023/03/26 09:42:46;;;;;;;10.30;1.75;;;9.40;99.90;;;;;;5011666;28;20060;-86
2023/03/26 09:45:39;;;;;;;12.65;1.73;;;9.40;99.90;;;;;;4994785;28;20500;-86
2023/03/26 09:48:11;;;;;;;9.57;1.88;;;9.50;99.90;;;;;;5021912;28;20042;-86
2023/03/26 09:51:01;;;;;;;11.32;1.60;;;9.50;99.90;;;;;;5005872;28;20049;-85
2023/03/26 09:54:09;;;;;;;8.45;1.63;;;9.60;99.90;;;;;;5004608;28;20052;-85
2023/03/26 09:56:59;;;;;;;9.38;1.70;;;9.70;99.90;;;;;;5023545;28;20041;-85
2023/03/26 10:00:04;;;;;;;9.85;2.00;;;9.80;99.90;;;;;;4989771;28;20488;-86
2023/03/26 10:03:26;;;;;;;11.70;2.05;;;9.90;99.90;;;;;;5005128;28;20038;-83
2023/03/26 10:06:12;;;;;;;6.90;1.83;;;9.90;99.90;;;;;;4987299;28;20084;-88
2023/03/26 10:08:46;;;;;;;12.68;1.88;;;9.90;99.90;;;;;;5005513;28;20049;-86
2023/03/26 10:11:22;;;;;;;8.70;1.98;;;9.90;99.90;;;;;;5022995;28;20080;-83
2023/03/26 10:14:11;;;;;;;20.25;2.63;;;10.50;99.90;;;;;;5020859;28;20042;-83
2023/03/26 10:16:55;;;;;;;13.43;2.58;;;9.90;99.90;;;;;;5015361;28;20084;-82
2023/03/26 10:19:50;;;;;;;14.70;1.92;;;9.90;99.90;;;;;;5070088;28;20099;-82
2023/03/26 10:22:30;;;;;;;13.65;2.55;;;10.00;99.90;;;;;;5056757;28;20115;-82
2023/03/26 10:25:04;;;;;;;10.48;1.95;;;9.90;99.90;;;;;;5059573;28;20033;-83
2023/03/26 10:28:04;;;;;;;10.13;1.40;;;10.00;99.90;;;;;;5052985;28;20060;-81
2023/03/26 10:30:50;;;;;;;11.43;2.10;;;10.00;99.90;;;;;;5051707;28;20112;-82
2023/03/26 10:33:48;;;;;;;15.50;2.35;;;10.00;99.90;;;;;;5061567;28;20060;-82
2023/03/26 10:36:36;;;;;;;15.93;2.13;;;9.90;99.90;;;;;;5055193;28;20059;-82
2023/03/26 10:39:30;;;;;;;16.25;2.88;;;9.90;99.90;;;;;;5042145;28;20064;-82
2023/03/26 10:42:21;;;;;;;8.67;1.40;;;9.90;99.90;;;;;;5047342;28;20049;-83
2023/03/26 10:45:25;;;;;;;12.77;2.67;;;9.60;99.90;;;;;;5034992;28;20060;-81
2023/03/26 10:48:15;;;;;;;8.68;1.65;;;9.70;99.90;;;;;;5051761;28;20032;-82
2023/03/26 10:51:15;;;;;;;16.73;2.45;;;9.80;99.90;;;;;;5048460;28;20457;-82
2023/03/26 10:54:06;;;;;;;8.38;1.58;;;9.80;99.90;;;;;;5051959;28;20055;-82
2023/03/26 10:56:44;;;;;;;17.20;2.22;;;9.90;99.90;;;;;;5062018;28;20041;-83
2023/03/26 10:59:13;;;;;;;8.07;2.03;;;9.80;99.90;;;;;;5055090;28;20064;-83
2023/03/26 11:01:54;;;;;;;22.92;3.28;;;9.80;99.90;;;;;;5054831;28;20135;-83
2023/03/26 11:04:53;;;;;;;10.77;1.63;;;9.80;99.90;;;;;;5054173;28;20057;-84
2023/03/26 11:07:34;;;;;;;9.68;1.60;;;9.80;99.90;;;;;;5058428;28;20058;-81
2023/03/26 11:10:15;;;;;;;10.48;1.90;;;9.80;99.90;;;;;;5044933;28;20114;-85
2023/03/26 11:12:45;;;;;;;14.93;2.65;;;9.80;99.90;;;;;;5046892;28;20071;-84
2023/03/26 11:15:34;;;;;;;9.05;1.65;;;9.80;99.90;;;;;;5048039;28;20137;-86
2023/03/26 11:18:19;;;;;;;13.07;1.85;;;9.90;99.90;;;;;;5042189;28;20107;-82
2023/03/26 11:21:00;;;;;;;11.57;2.13;;;9.90;99.90;;;;;;5045859;28;20699;-83
2023/03/26 11:23:44;;;;;;;8.30;1.70;;;9.90;99.90;;;;;;5042929;28;20580;-83
2023/03/26 11:26:18;;;;;;;6.75;1.52;;;9.90;99.90;;;;;;5042070;28;20062;-84
2023/03/26 11:28:50;;;;;;;13.05;3.08;;;9.90;99.90;;;;;;5038985;28;20155;-83
2023/03/26 11:31:50;;;;;;;8.48;1.50;;;9.90;99.90;;;;;;5048271;28;20106;-83
2023/03/26 11:34:20;;;;;;;14.00;1.95;;;9.90;99.90;;;;;;5034793;28;20566;-83
2023/03/26 11:36:50;;;;;;;13.10;2.33;;;10.00;99.90;;;;;;5038013;28;20054;-83
2023/03/26 11:39:28;;;;;;;16.00;2.15;;;10.00;99.90;;;;;;5038747;28;20071;-83
2023/03/26 11:42:10;;;;;;;12.15;1.63;;;10.00;99.90;;;;;;5052865;28;20509;-83
2023/03/26 11:44:46;;;;;;;11.52;1.58;;;10.00;99.90;;;;;;5038313;28;20044;-82
2023/03/26 11:47:17;;;;;;;10.55;2.35;;;10.00;99.90;;;;;;5039370;28;20060;-83
2023/03/26 11:49:46;;;;;;;7.88;1.40;;;10.00;99.90;;;;;;5039720;28;20045;-84
2023/03/26 11:52:14;;;;;;;12.82;2.28;;;10.10;99.90;;;;;;5040927;28;20045;-83
2023/03/26 11:54:42;;;;;;;9.65;1.60;;;10.10;99.90;;;;;;5040706;28;20113;-83
2023/03/26 11:57:15;;;;;;;14.52;2.95;;;10.20;99.90;;;;;;5042994;28;20065;-83
2023/03/26 12:00:15;;;;;;;11.80;2.92;;;10.30;99.90;;;;;;5022777;28;20602;-84
2023/03/26 12:02:42;;;;;;;6.82;1.60;;;10.40;99.90;;;;;;5042807;28;20048;-83
2023/03/26 12:05:32;;;;;;;10.63;1.98;;;10.40;99.90;;;;;;5043627;28;20032;-83
2023/03/26 12:08:20;;;;;;;6.80;1.45;;;10.40;99.90;;;;;;5041970;28;20196;-82
2023/03/26 12:10:57;;;;;;;9.70;1.45;;;10.50;99.90;;;;;;5051234;28;20083;-83
2023/03/26 12:13:29;;;;;;;12.13;2.30;;;10.70;99.90;;;;;;5048383;28;20798;-83
2023/03/26 12:16:20;;;;;;;14.45;1.73;;;10.70;99.90;;;;;;5040463;28;20143;-83
2023/03/26 12:18:59;;;;;;;9.02;1.50;;;11.10;99.90;;;;;;5040573;28;20097;-83
2023/03/26 12:21:25;;;;;;;12.00;1.83;;;10.80;99.90;;;;;;5044305;28;20128;-83
2023/03/26 12:24:00;;;;;;;7.78;1.48;;;10.80;99.90;;;;;;5037858;28;20819;-83
2023/03/26 12:26:44;;;;;;;;;;;10.70;99.90;;;;;;5029223;28;20130;-83
2023/03/26 12:29:12;;;;;;;9.57;1.42;;;10.70;99.90;;;;;;5021994;28;20143;-83
2023/03/26 12:31:56;;;;;;;6.95;1.50;;;10.70;99.90;;;;;;5022737;28;20152;-83
2023/03/26 12:34:29;;;;;;;9.70;1.48;;;10.60;99.90;;;;;;5037895;28;20064;-84
2023/03/26 12:36:59;;;;;;;7.30;1.67;;;10.60;99.90;;;;;;5020397;28;20055;-84
2023/03/26 12:39:39;;;;;;;12.38;2.20;;;10.50;99.90;;;;;;5038811;28;20037;-84
2023/03/26 12:42:28;;;;;;;7.03;1.60;;;10.50;99.90;;;;;;5038576;28;20600;-84
2023/03/26 12:44:56;;;;;;;12.70;1.77;;;10.60;99.90;;;;;;5043507;28;20586;-84
2023/03/26 12:47:24;;;;;;;11.95;2.00;;;10.70;99.90;;;;;;5040212;28;20045;-84
2023/03/26 12:49:51;;;;;;;7.95;1.05;;;10.90;99.90;;;;;;5037928;28;20594;-83
2023/03/26 12:52:51;;;;;;;12.68;2.28;;;11.20;99.90;;;;;;5040645;28;20049;-84
2023/03/26 12:55:56;;;;;;;11.32;1.70;;;11.20;99.90;;;;;;5041487;28;20727;-84
2023/03/26 12:59:00;;;;;;;11.85;2.28;;;11.30;99.90;;;;;;5038139;28;20063;-85
2023/03/26 13:01:49;;;;;;;8.40;1.85;;;11.30;99.90;;;;;;5044669;28;20049;-84
2023/03/26 13:04:38;;;;;;;7.63;1.40;;;11.20;99.90;;;;;;5041526;28;20036;-84
2023/03/26 13:07:19;;;;;;;9.68;1.70;;;11.10;99.90;;;;;;5043672;28;20048;-83
2023/03/26 13:10:25;;;;;;;8.40;1.83;;;11.00;99.90;;;;;;5038691;28;20502;-84
2023/03/26 13:13:04;;;;;;;8.95;1.90;;;11.00;99.90;;;;;;5043000;28;20099;-83
2023/03/26 13:15:47;;;;;;;11.93;1.58;;;10.90;99.90;;;;;;5039245;28;20032;-83
2023/03/26 13:18:32;;;;;;;13.25;1.80;;;10.90;99.90;;;;;;5038032;28;20460;-83
2023/03/26 13:21:28;;;;;;;14.38;2.08;;;10.90;99.90;;;;;;5050294;28;20048;-83
2023/03/26 13:24:15;;;;;;;11.57;1.75;;;10.90;99.90;;;;;;5038795;28;20036;-83
2023/03/26 13:27:05;;;;;;;13.50;1.90;;;10.80;99.90;;;;;;5049176;28;20769;-83
2023/03/26 13:29:55;;;;;;;9.52;1.60;;;10.80;99.90;;;;;;5019526;28;20048;-83